createdAt,value
2023-03-26T00:00:13.397Z,31.03
2023-03-26T00:01:16.001Z,24.69
2023-03-26T00:02:18.758Z,27.25
2023-03-26T00:03:21.267Z,28.23
2023-03-26T00:04:23.837Z,26.20
2023-03-26T00:05:26.360Z,30.77
2023-03-26T00:06:29.391Z,29.72
2023-03-26T00:07:31.970Z,30.39
2023-03-26T00:08:34.525Z,30.96
2023-03-26T00:09:37.244Z,28.96
2023-03-26T00:10:39.838Z,29.81
2023-03-26T00:11:42.467Z,27.51
2023-03-26T00:12:45.135Z,27.79
2023-03-26T00:13:47.696Z,34.43
2023-03-26T00:14:50.259Z,28.76
2023-03-26T00:15:53.131Z,26.02
2023-03-26T00:16:56.466Z,34.54
2023-03-26T00:17:59.343Z,28.98
2023-03-26T00:19:02.003Z,32.17
2023-03-26T00:20:04.661Z,29.32
2023-03-26T00:21:07.253Z,33.56
2023-03-26T00:22:09.821Z,27.75
2023-03-26T00:23:12.414Z,29.23
2023-03-26T00:24:15.496Z,30.69
2023-03-26T00:25:18.363Z,30.81
2023-03-26T00:26:21.034Z,31.39
2023-03-26T00:27:23.615Z,31.10
2023-03-26T00:28:26.243Z,28.18
2023-03-26T00:29:28.947Z,25.72
2023-03-26T00:30:31.786Z,29.91
2023-03-26T00:31:34.366Z,33.10
2023-03-26T00:32:37.110Z,33.69
2023-03-26T00:33:40.043Z,31.43
2023-03-26T00:34:42.538Z,34.39
2023-03-26T00:35:45.090Z,29.85
2023-03-26T00:36:47.737Z,30.79
2023-03-26T00:37:50.321Z,29.40
2023-03-26T00:38:52.909Z,32.36
2023-03-26T00:39:55.516Z,35.24
2023-03-26T00:40:59.958Z,31.37
2023-03-26T00:42:02.521Z,30.82
2023-03-26T00:43:05.146Z,31.07
2023-03-26T00:44:07.710Z,40.75
2023-03-26T00:45:10.273Z,35.79
2023-03-26T00:46:14.179Z,33.80
2023-03-26T00:47:16.866Z,29.80
2023-03-26T00:48:19.473Z,34.82
2023-03-26T00:49:22.074Z,28.83
2023-03-26T00:50:24.633Z,31.39
2023-03-26T00:51:27.231Z,31.95
2023-03-26T00:52:29.778Z,30.53
2023-03-26T00:53:32.610Z,26.30
2023-03-26T00:54:35.178Z,28.12
2023-03-26T00:55:37.737Z,29.90
2023-03-26T00:56:40.343Z,31.76
2023-03-26T00:57:42.888Z,31.69
2023-03-26T00:58:45.462Z,34.03
2023-03-26T00:59:48.028Z,34.63
2023-03-26T01:00:50.930Z,30.44
2023-03-26T01:01:53.562Z,36.17
2023-03-26T01:02:56.301Z,32.19
2023-03-26T01:04:08.245Z,32.22
2023-03-26T01:05:03.434Z,35.35
2023-03-26T01:06:06.373Z,33.36
2023-03-26T01:07:08.901Z,28.50
2023-03-26T01:08:11.472Z,44.93
2023-03-26T01:09:14.083Z,29.79
2023-03-26T01:10:17.751Z,29.31
2023-03-26T01:11:20.307Z,31.68
2023-03-26T01:12:22.900Z,36.05
2023-03-26T01:13:25.718Z,31.42
2023-03-26T01:14:28.296Z,39.85
2023-03-26T01:15:30.915Z,34.45
2023-03-26T01:16:34.078Z,33.69
2023-03-26T01:17:36.629Z,37.56
2023-03-26T01:18:39.198Z,35.15
2023-03-26T01:19:41.642Z,38.59
2023-03-26T01:20:44.438Z,40.44
2023-03-26T01:21:46.969Z,32.41
2023-03-26T01:22:49.530Z,32.67
2023-03-26T01:23:52.085Z,37.91
2023-03-26T01:24:54.679Z,33.25
2023-03-26T01:25:57.253Z,34.51
2023-03-26T01:26:59.822Z,39.29
2023-03-26T01:28:02.382Z,35.74
2023-03-26T01:29:05.246Z,34.02
2023-03-26T01:30:08.453Z,39.38
2023-03-26T01:31:11.324Z,34.86
2023-03-26T01:32:13.927Z,36.10
2023-03-26T01:33:16.843Z,34.39
2023-03-26T01:34:19.443Z,32.65
2023-03-26T01:35:22.067Z,46.49
2023-03-26T01:36:25.110Z,36.00
2023-03-26T01:37:27.664Z,34.55
2023-03-26T01:38:30.216Z,40.42
2023-03-26T01:39:32.778Z,39.76
2023-03-26T01:40:35.465Z,45.65
2023-03-26T01:41:38.020Z,36.08
2023-03-26T01:42:40.489Z,36.37
2023-03-26T01:43:43.039Z,39.64
2023-03-26T01:44:45.598Z,37.03
2023-03-26T01:45:48.201Z,37.87
2023-03-26T01:46:50.981Z,33.33
2023-03-26T01:47:53.743Z,40.12
2023-03-26T01:48:56.286Z,35.43
2023-03-26T01:49:58.845Z,43.89
2023-03-26T01:51:01.587Z,40.25
2023-03-26T01:52:04.198Z,36.44
2023-03-26T01:53:06.755Z,44.05
2023-03-26T01:54:09.217Z,34.85
2023-03-26T01:55:11.868Z,44.75
2023-03-26T01:56:14.867Z,37.13
2023-03-26T01:57:17.447Z,36.49
2023-03-26T01:58:20.210Z,38.70
2023-03-26T01:59:22.814Z,42.39
2023-03-26T02:00:25.534Z,40.69
2023-03-26T02:01:28.206Z,39.97
2023-03-26T02:02:30.985Z,40.61
2023-03-26T02:03:33.902Z,38.77
2023-03-26T02:04:36.462Z,41.93
2023-03-26T02:05:39.017Z,39.15
2023-03-26T02:06:41.880Z,37.87
2023-03-26T02:07:44.506Z,45.20
2023-03-26T02:08:47.037Z,42.37
2023-03-26T02:09:49.590Z,37.88
2023-03-26T02:10:52.570Z,49.89
2023-03-26T02:11:55.217Z,40.46
2023-03-26T02:12:57.828Z,40.26
2023-03-26T02:14:00.300Z,39.49
2023-03-26T02:15:02.851Z,34.75
2023-03-26T02:16:05.562Z,43.50
2023-03-26T02:17:08.097Z,40.14
2023-03-26T02:18:10.682Z,37.84
2023-03-26T02:19:13.247Z,42.65
2023-03-26T02:20:15.910Z,51.16
2023-03-26T02:21:18.494Z,46.21
2023-03-26T02:22:21.058Z,47.95
2023-03-26T02:23:23.645Z,42.19
2023-03-26T02:24:26.203Z,54.61
2023-03-26T02:25:28.774Z,41.37
2023-03-26T02:26:31.630Z,41.96
2023-03-26T02:27:34.187Z,50.53
2023-03-26T02:28:36.807Z,44.67
2023-03-26T02:29:39.264Z,39.81
2023-03-26T02:30:42.048Z,38.45
2023-03-26T02:31:44.621Z,39.27
2023-03-26T02:32:47.406Z,38.96
2023-03-26T02:33:50.041Z,44.31
2023-03-26T02:34:52.703Z,45.62
2023-03-26T02:35:55.416Z,35.77
2023-03-26T02:36:58.331Z,37.58
2023-03-26T02:38:00.788Z,48.56
2023-03-26T02:39:03.391Z,44.65
2023-03-26T02:40:06.396Z,43.78
2023-03-26T02:41:08.887Z,39.63
2023-03-26T02:42:11.457Z,57.10
2023-03-26T02:43:14.029Z,43.33
2023-03-26T02:44:16.634Z,45.67
2023-03-26T02:45:19.189Z,47.92
2023-03-26T02:46:22.112Z,43.69
2023-03-26T02:47:24.742Z,36.09
2023-03-26T02:48:27.412Z,41.25
2023-03-26T02:49:30.035Z,36.15
2023-03-26T02:50:32.783Z,43.13
2023-03-26T02:51:35.358Z,44.89
2023-03-26T02:52:38.242Z,48.47
2023-03-26T02:53:40.792Z,41.41
2023-03-26T02:54:43.384Z,40.79
2023-03-26T02:55:45.943Z,43.25
2023-03-26T02:56:48.793Z,43.91
2023-03-26T02:57:51.413Z,42.16
2023-03-26T02:58:53.971Z,34.70
2023-03-26T02:59:56.565Z,41.85
2023-03-26T03:00:59.770Z,43.56
2023-03-26T03:02:02.459Z,39.08
2023-03-26T03:03:05.197Z,39.57
2023-03-26T03:04:08.023Z,42.75
2023-03-26T03:05:10.598Z,38.84
2023-03-26T03:06:13.725Z,40.13
2023-03-26T03:07:16.276Z,40.31
2023-03-26T03:08:18.848Z,40.95
2023-03-26T03:09:21.428Z,46.71
2023-03-26T03:10:24.086Z,41.19
2023-03-26T03:11:26.680Z,37.92
2023-03-26T03:12:29.266Z,43.09
2023-03-26T03:13:31.887Z,40.31
2023-03-26T03:14:34.460Z,48.62
2023-03-26T03:15:37.063Z,31.18
2023-03-26T03:16:39.809Z,36.29
2023-03-26T03:17:42.501Z,40.04
2023-03-26T03:18:45.342Z,40.00
2023-03-26T03:19:47.902Z,36.29
2023-03-26T03:20:50.787Z,42.23
2023-03-26T03:21:53.348Z,43.83
2023-03-26T03:22:56.117Z,41.01
2023-03-26T03:24:00.037Z,39.10
2023-03-26T03:25:03.090Z,41.87
2023-03-26T03:26:05.991Z,41.32
2023-03-26T03:27:08.580Z,46.40
2023-03-26T03:28:11.246Z,45.07
2023-03-26T03:29:13.816Z,40.45
2023-03-26T03:30:16.589Z,40.83
2023-03-26T03:31:19.244Z,44.11
2023-03-26T03:32:21.985Z,43.10
2023-03-26T03:33:24.951Z,40.62
2023-03-26T03:34:27.514Z,33.50
2023-03-26T03:35:30.221Z,42.67
2023-03-26T03:36:33.333Z,44.52
2023-03-26T03:37:35.796Z,43.90
2023-03-26T03:38:38.357Z,43.41
2023-03-26T03:39:40.916Z,43.57
2023-03-26T03:40:43.769Z,36.24
2023-03-26T03:41:46.285Z,37.87
2023-03-26T03:42:48.848Z,41.37
2023-03-26T03:43:51.414Z,36.06
2023-03-26T03:44:54.024Z,34.73
2023-03-26T03:45:56.817Z,39.11
2023-03-26T03:46:59.649Z,34.25
2023-03-26T03:48:02.229Z,38.35
2023-03-26T03:49:04.944Z,37.48
2023-03-26T03:50:08.000Z,38.31
2023-03-26T03:51:10.539Z,45.47
2023-03-26T03:52:13.199Z,43.81
2023-03-26T03:53:15.741Z,32.06
2023-03-26T03:54:18.322Z,35.20
2023-03-26T03:55:20.889Z,37.43
2023-03-26T03:56:23.456Z,37.50
2023-03-26T03:57:26.039Z,36.21
2023-03-26T03:58:28.628Z,36.15
2023-03-26T03:59:31.196Z,38.61
2023-03-26T04:00:34.054Z,31.14
2023-03-26T04:01:36.623Z,29.76
2023-03-26T04:02:39.285Z,35.49
2023-03-26T04:03:42.383Z,31.82
2023-03-26T04:04:45.153Z,32.46
2023-03-26T04:05:48.046Z,30.79
2023-03-26T04:06:50.616Z,28.03
2023-03-26T04:07:53.189Z,30.05
2023-03-26T04:08:55.755Z,33.71
2023-03-26T04:09:58.425Z,34.87
2023-03-26T04:11:01.293Z,32.67
2023-03-26T04:12:03.917Z,33.23
2023-03-26T04:13:06.487Z,32.64
2023-03-26T04:14:09.030Z,32.13
2023-03-26T04:15:11.621Z,34.67
2023-03-26T04:16:14.379Z,35.26
2023-03-26T04:17:16.972Z,38.99
2023-03-26T04:18:19.566Z,36.27
2023-03-26T04:19:22.132Z,36.01
2023-03-26T04:20:24.701Z,33.15
2023-03-26T04:21:27.273Z,34.73
2023-03-26T04:22:29.876Z,34.93
2023-03-26T04:23:32.478Z,36.37
2023-03-26T04:24:35.038Z,32.31
2023-03-26T04:25:37.807Z,36.32
2023-03-26T04:26:40.472Z,32.34
2023-03-26T04:27:43.036Z,33.43
2023-03-26T04:28:45.606Z,35.35
2023-03-26T04:29:48.177Z,33.92
2023-03-26T04:30:50.859Z,28.43
2023-03-26T04:31:53.453Z,32.52
2023-03-26T04:32:56.199Z,34.74
2023-03-26T04:33:58.842Z,43.76
2023-03-26T04:35:01.446Z,36.66
2023-03-26T04:36:04.215Z,34.54
2023-03-26T04:37:06.893Z,28.05
2023-03-26T04:38:09.474Z,31.56
2023-03-26T04:39:12.070Z,27.21
2023-03-26T04:40:15.168Z,27.94
2023-03-26T04:41:18.038Z,40.99
2023-03-26T04:42:20.680Z,31.70
2023-03-26T04:43:23.281Z,34.94
2023-03-26T04:44:25.944Z,26.33
2023-03-26T04:45:28.514Z,22.32
2023-03-26T04:46:31.248Z,25.74
2023-03-26T04:47:33.986Z,34.39
2023-03-26T04:48:36.876Z,27.91
2023-03-26T04:49:39.440Z,31.73
2023-03-26T04:50:42.123Z,28.60
2023-03-26T04:51:44.687Z,25.03
2023-03-26T04:52:47.250Z,26.61
2023-03-26T04:53:49.818Z,33.71
2023-03-26T04:54:52.390Z,28.75
2023-03-26T04:55:55.110Z,21.51
2023-03-26T04:56:58.247Z,29.11
2023-03-26T04:58:00.860Z,26.02
2023-03-26T04:59:03.519Z,28.69
2023-03-26T05:00:06.497Z,35.83
2023-03-26T05:01:10.117Z,27.89
2023-03-26T05:02:13.398Z,29.28
2023-03-26T05:03:16.244Z,30.35
2023-03-26T05:04:18.886Z,34.69
2023-03-26T05:05:21.421Z,32.97
2023-03-26T05:06:23.985Z,31.19
2023-03-26T05:07:26.575Z,28.50
2023-03-26T05:08:29.144Z,35.91
2023-03-26T05:09:31.606Z,29.44
2023-03-26T05:10:34.405Z,35.57
2023-03-26T05:11:36.995Z,33.85
2023-03-26T05:12:39.787Z,34.70
2023-03-26T05:13:42.369Z,35.92
2023-03-26T05:14:44.982Z,34.40
2023-03-26T05:15:47.625Z,29.09
2023-03-26T05:16:50.480Z,31.51
2023-03-26T05:17:53.557Z,34.92
2023-03-26T05:18:56.352Z,30.62
2023-03-26T05:19:58.946Z,32.51
2023-03-26T05:21:01.737Z,30.16
2023-03-26T05:22:04.308Z,24.73
2023-03-26T05:23:06.897Z,31.47
2023-03-26T05:24:09.399Z,29.41
2023-03-26T05:25:11.998Z,26.85
2023-03-26T05:26:15.069Z,31.16
2023-03-26T05:27:17.690Z,25.90
2023-03-26T05:28:20.454Z,29.25
2023-03-26T05:29:23.064Z,24.22
2023-03-26T05:30:25.746Z,23.28
2023-03-26T05:31:28.345Z,28.30
2023-03-26T05:32:30.972Z,27.93
2023-03-26T05:33:33.945Z,28.13
2023-03-26T05:34:36.724Z,24.24
2023-03-26T05:35:39.324Z,22.51
2023-03-26T05:36:42.324Z,25.80
2023-03-26T05:37:44.891Z,18.19
2023-03-26T05:38:47.485Z,23.43
2023-03-26T05:39:50.075Z,23.19
2023-03-26T05:40:52.836Z,26.23
2023-03-26T05:41:55.739Z,29.48
2023-03-26T05:42:58.334Z,25.05
2023-03-26T05:44:00.893Z,25.02
2023-03-26T05:45:03.473Z,30.18
2023-03-26T05:46:06.428Z,33.04
2023-03-26T05:47:09.096Z,23.46
2023-03-26T05:48:11.751Z,27.78
2023-03-26T05:49:14.371Z,33.74
2023-03-26T05:50:17.372Z,26.81
2023-03-26T05:51:19.966Z,27.22
2023-03-26T05:52:22.754Z,29.07
2023-03-26T05:53:25.291Z,28.53
2023-03-26T05:54:27.857Z,25.47
2023-03-26T05:55:30.423Z,33.53
2023-03-26T05:56:33.135Z,25.71
2023-03-26T05:57:35.747Z,20.23
2023-03-26T05:58:38.328Z,25.08
2023-03-26T05:59:40.897Z,36.50
2023-03-26T06:00:43.759Z,34.21
2023-03-26T06:01:46.336Z,23.19
2023-03-26T06:02:48.961Z,23.44
2023-03-26T06:03:51.861Z,25.87
2023-03-26T06:04:55.103Z,32.38
2023-03-26T06:05:57.699Z,29.13
2023-03-26T06:07:00.261Z,25.02
2023-03-26T06:08:02.823Z,24.53
2023-03-26T06:09:05.280Z,27.60
2023-03-26T06:10:08.494Z,24.99
2023-03-26T06:11:10.971Z,21.50
2023-03-26T06:12:13.566Z,19.37
2023-03-26T06:13:16.107Z,19.24
2023-03-26T06:14:18.668Z,28.98
2023-03-26T06:15:21.275Z,30.34
2023-03-26T06:16:26.236Z,18.56
2023-03-26T06:17:28.872Z,23.41
2023-03-26T06:18:31.578Z,26.88
2023-03-26T06:19:34.142Z,24.97
2023-03-26T06:20:36.992Z,25.43
2023-03-26T06:21:39.550Z,22.54
2023-03-26T06:22:42.133Z,23.47
2023-03-26T06:23:44.685Z,24.73
2023-03-26T06:24:47.250Z,23.33
2023-03-26T06:25:50.045Z,24.61
2023-03-26T06:26:52.908Z,26.90
2023-03-26T06:27:55.485Z,24.39
2023-03-26T06:28:58.046Z,19.80
2023-03-26T06:30:00.623Z,21.74
2023-03-26T06:31:03.269Z,23.23
2023-03-26T06:32:18.449Z,22.38
2023-03-26T06:33:10.374Z,22.21
2023-03-26T06:34:12.967Z,26.43
2023-03-26T06:35:15.501Z,25.53
2023-03-26T06:36:18.300Z,30.85
2023-03-26T06:37:21.178Z,25.47
2023-03-26T06:38:23.741Z,27.63
2023-03-26T06:39:26.292Z,23.61
2023-03-26T06:40:29.156Z,30.02
2023-03-26T06:41:31.635Z,25.07
2023-03-26T06:43:08.504Z,24.93
2023-03-26T06:43:38.583Z,29.85
2023-03-26T06:44:41.177Z,26.88
2023-03-26T06:45:43.737Z,28.12
2023-03-26T06:46:46.488Z,20.13
2023-03-26T06:47:49.184Z,26.38
2023-03-26T06:48:51.764Z,24.39
2023-03-26T06:49:54.398Z,26.87
2023-03-26T06:50:57.134Z,23.98
2023-03-26T06:51:59.736Z,22.19
2023-03-26T06:53:02.640Z,17.39
2023-03-26T06:54:05.350Z,29.69
2023-03-26T06:55:07.898Z,29.01
2023-03-26T06:56:10.804Z,27.51
2023-03-26T06:57:13.342Z,25.55
2023-03-26T06:58:16.062Z,19.54
2023-03-26T06:59:18.522Z,29.06
2023-03-26T07:00:21.407Z,37.23
2023-03-26T07:01:24.020Z,27.19
2023-03-26T07:02:26.674Z,22.89
2023-03-26T07:03:29.327Z,29.86
2023-03-26T07:04:31.898Z,28.13
2023-03-26T07:05:34.461Z,23.47
2023-03-26T07:06:37.117Z,19.18
2023-03-26T07:07:45.782Z,26.99
2023-03-26T07:08:44.038Z,28.20
2023-03-26T07:09:46.706Z,30.49
2023-03-26T07:10:49.282Z,29.95
2023-03-26T07:11:51.857Z,25.42
2023-03-26T07:12:54.441Z,30.25
2023-03-26T07:13:56.986Z,24.23
2023-03-26T07:15:00.389Z,26.01
2023-03-26T07:16:03.007Z,31.49
2023-03-26T07:17:05.652Z,23.84
2023-03-26T07:18:08.209Z,18.91
2023-03-26T07:19:10.835Z,25.27
2023-03-26T07:20:14.037Z,23.06
2023-03-26T07:21:16.622Z,26.83
2023-03-26T07:22:19.181Z,23.02
2023-03-26T07:23:21.758Z,25.83
2023-03-26T07:24:24.303Z,26.38
2023-03-26T07:25:27.038Z,27.35
2023-03-26T07:26:29.728Z,29.47
2023-03-26T07:27:32.292Z,21.23
2023-03-26T07:28:34.876Z,27.37
2023-03-26T07:29:37.477Z,26.07
2023-03-26T07:30:40.121Z,20.31
2023-03-26T07:31:42.688Z,25.27
2023-03-26T07:32:45.445Z,24.63
2023-03-26T07:33:48.074Z,24.09
2023-03-26T07:34:50.838Z,34.54
2023-03-26T07:35:53.554Z,26.71
2023-03-26T07:36:56.680Z,29.15
2023-03-26T07:37:59.268Z,28.11
2023-03-26T07:39:02.044Z,26.91
2023-03-26T07:40:04.734Z,29.94
2023-03-26T07:41:07.365Z,26.07
2023-03-26T07:42:09.907Z,108.69
2023-03-26T07:43:12.543Z,99.39
2023-03-26T07:44:15.163Z,42.65
2023-03-26T07:45:17.676Z,157.63
2023-03-26T07:46:20.279Z,105.34
2023-03-26T07:47:22.864Z,40.15
2023-03-26T07:48:25.623Z,41.95
2023-03-26T07:49:28.241Z,25.56
2023-03-26T07:50:30.870Z,32.73
2023-03-26T07:51:33.489Z,39.95
2023-03-26T07:52:36.288Z,311.04
2023-03-26T07:53:39.655Z,40.60
2023-03-26T07:54:42.253Z,97.51
2023-03-26T07:55:45.568Z,71.35
2023-03-26T07:56:48.606Z,51.39
2023-03-26T07:57:51.364Z,26.09
2023-03-26T07:58:53.921Z,32.24
2023-03-26T07:59:56.702Z,37.42
2023-03-26T08:00:59.340Z,37.81
2023-03-26T08:02:02.318Z,24.09
2023-03-26T08:03:05.006Z,33.44
2023-03-26T08:04:23.289Z,34.04
2023-03-26T08:05:12.416Z,100.72
2023-03-26T08:06:15.169Z,50.78
2023-03-26T08:07:18.141Z,36.52
2023-03-26T08:08:20.787Z,132.36
2023-03-26T08:09:23.974Z,69.84
2023-03-26T08:10:26.898Z,80.49
2023-03-26T08:11:29.558Z,115.69
2023-03-26T08:12:32.144Z,145.29
2023-03-26T08:13:35.226Z,284.19
2023-03-26T08:14:37.787Z,85.78
2023-03-26T08:15:40.975Z,40.95
2023-03-26T08:16:43.978Z,56.40
2023-03-26T08:17:46.604Z,23.71
2023-03-26T08:18:49.348Z,31.00
2023-03-26T08:19:52.077Z,26.20
2023-03-26T08:20:55.283Z,30.11
2023-03-26T08:21:58.290Z,30.63
2023-03-26T08:23:01.081Z,40.50
2023-03-26T08:24:04.104Z,30.63
2023-03-26T08:25:06.858Z,31.00
2023-03-26T08:26:10.341Z,23.78
2023-03-26T08:27:13.933Z,28.64
2023-03-26T08:28:16.862Z,30.46
2023-03-26T08:29:19.415Z,27.09
2023-03-26T08:30:22.015Z,27.60
2023-03-26T08:31:24.604Z,25.58
2023-03-26T08:32:27.492Z,27.31
2023-03-26T08:33:30.065Z,71.27
2023-03-26T08:34:32.717Z,68.10
2023-03-26T08:35:35.509Z,95.97
2023-03-26T08:36:38.387Z,38.03
2023-03-26T08:37:40.981Z,85.09
2023-03-26T08:38:45.138Z,453.76
2023-03-26T08:39:48.294Z,502.26
2023-03-26T08:40:50.910Z,210.29
2023-03-26T08:41:53.526Z,283.75
2023-03-26T08:42:56.429Z,431.78
2023-03-26T08:43:58.993Z,172.55
2023-03-26T08:45:01.628Z,31.93
2023-03-26T08:46:04.549Z,52.36
2023-03-26T08:47:07.110Z,125.21
2023-03-26T08:48:09.709Z,42.76
2023-03-26T08:49:12.278Z,310.39
2023-03-26T08:50:15.000Z,354.53
2023-03-26T08:51:17.612Z,89.11
2023-03-26T08:52:20.196Z,70.26
2023-03-26T08:53:22.770Z,70.55
2023-03-26T08:54:25.347Z,42.58
2023-03-26T08:55:27.935Z,334.45
2023-03-26T08:56:30.647Z,270.54
2023-03-26T08:57:33.269Z,576.40
2023-03-26T08:58:35.842Z,47.63
2023-03-26T08:59:38.447Z,411.79
2023-03-26T09:00:41.344Z,139.53
2023-03-26T09:01:43.947Z,114.59
2023-03-26T09:02:46.582Z,261.96
2023-03-26T09:03:49.370Z,70.67
2023-03-26T09:04:52.024Z,33.22
2023-03-26T09:05:54.604Z,276.05
2023-03-26T09:06:57.665Z,89.03
2023-03-26T09:08:00.262Z,399.92
2023-03-26T09:09:03.029Z,206.28
2023-03-26T09:10:05.696Z,119.43
2023-03-26T09:11:08.258Z,35.65
2023-03-26T09:12:10.841Z,173.17
2023-03-26T09:13:13.212Z,220.13
2023-03-26T09:14:16.931Z,72.75
2023-03-26T09:15:19.560Z,429.55
2023-03-26T09:16:22.307Z,67.27
2023-03-26T09:17:25.009Z,110.77
2023-03-26T09:18:27.545Z,56.75
2023-03-26T09:19:30.347Z,62.83
2023-03-26T09:20:32.893Z,55.26
2023-03-26T09:21:35.485Z,179.83
2023-03-26T09:22:38.053Z,341.42
2023-03-26T09:23:40.635Z,127.45
2023-03-26T09:24:43.257Z,77.03
2023-03-26T09:25:45.840Z,153.88
2023-03-26T09:26:48.639Z,117.86
2023-03-26T09:27:51.591Z,69.98
2023-03-26T09:28:54.129Z,112.98
2023-03-26T09:29:56.872Z,91.25
2023-03-26T09:30:59.688Z,45.86
2023-03-26T09:32:02.264Z,67.95
2023-03-26T09:33:04.872Z,103.14
2023-03-26T09:34:07.440Z,50.13
2023-03-26T09:35:12.506Z,45.51
2023-03-26T09:36:14.559Z,87.04
2023-03-26T09:37:17.122Z,59.25
2023-03-26T09:38:19.701Z,42.85
2023-03-26T09:39:22.412Z,40.34
2023-03-26T09:40:25.340Z,29.13
2023-03-26T09:41:27.959Z,45.69
2023-03-26T09:42:30.565Z,62.95
2023-03-26T09:43:33.019Z,28.17
2023-03-26T09:44:35.926Z,176.37
2023-03-26T09:45:38.568Z,44.89
2023-03-26T09:46:41.310Z,51.36
2023-03-26T09:47:43.959Z,175.42
2023-03-26T09:48:46.626Z,177.20
2023-03-26T09:49:49.248Z,104.77
2023-03-26T09:50:51.935Z,47.87
2023-03-26T09:51:54.455Z,42.05
2023-03-26T09:52:57.054Z,391.62
2023-03-26T09:53:59.631Z,401.25
2023-03-26T09:55:02.249Z,89.29
2023-03-26T09:56:04.954Z,89.03
2023-03-26T09:57:07.618Z,210.81
2023-03-26T09:58:10.241Z,62.54
2023-03-26T09:59:12.999Z,127.94
2023-03-26T10:00:16.521Z,61.36
2023-03-26T10:01:19.152Z,72.54
2023-03-26T10:02:21.650Z,34.91
2023-03-26T10:03:25.708Z,75.36
2023-03-26T10:04:28.822Z,34.94
2023-03-26T10:05:31.451Z,63.02
2023-03-26T10:06:34.590Z,43.78
2023-03-26T10:07:37.198Z,44.20
2023-03-26T10:08:39.778Z,60.62
2023-03-26T10:09:42.317Z,83.39
2023-03-26T10:10:45.059Z,17.77
2023-03-26T10:11:47.636Z,18.67
2023-03-26T10:12:50.235Z,22.55
2023-03-26T10:13:52.973Z,25.41
2023-03-26T10:14:55.576Z,66.77
2023-03-26T10:15:58.048Z,54.45
2023-03-26T10:17:00.803Z,18.41
2023-03-26T10:18:03.433Z,45.91
2023-03-26T10:19:07.792Z,72.46
2023-03-26T10:20:10.554Z,230.18
2023-03-26T10:21:13.392Z,228.04
2023-03-26T10:22:15.896Z,122.62
2023-03-26T10:23:18.450Z,246.39
2023-03-26T10:24:21.023Z,314.92
2023-03-26T10:25:24.289Z,110.48
2023-03-26T10:26:26.961Z,164.29
2023-03-26T10:27:29.513Z,223.13
2023-03-26T10:28:32.107Z,206.56
2023-03-26T10:29:34.599Z,48.81
2023-03-26T10:30:37.386Z,23.49
2023-03-26T10:31:39.989Z,80.45
2023-03-26T10:32:42.566Z,29.67
2023-03-26T10:33:45.141Z,46.53
2023-03-26T10:34:47.704Z,39.21
2023-03-26T10:35:50.296Z,114.69
2023-03-26T10:36:53.045Z,30.13
2023-03-26T10:37:55.670Z,19.53
2023-03-26T10:38:58.262Z,19.53
2023-03-26T10:40:00.829Z,24.37
2023-03-26T10:41:03.432Z,44.81
2023-03-26T10:42:06.047Z,17.79
2023-03-26T10:43:09.015Z,25.37
2023-03-26T10:44:13.425Z,62.41
2023-03-26T10:45:16.013Z,28.83
2023-03-26T10:46:18.912Z,25.90
2023-03-26T10:47:21.645Z,51.82
2023-03-26T10:48:24.162Z,42.51
2023-03-26T10:49:26.802Z,34.63
2023-03-26T10:50:29.571Z,20.14
2023-03-26T10:51:32.132Z,32.41
2023-03-26T10:52:34.691Z,18.22
2023-03-26T10:53:37.261Z,18.27
2023-03-26T10:54:39.873Z,22.24
2023-03-26T10:55:42.469Z,26.35
2023-03-26T10:56:45.230Z,24.06
2023-03-26T10:57:47.850Z,38.87
2023-03-26T10:58:50.634Z,52.79
2023-03-26T10:59:53.349Z,24.16
2023-03-26T11:00:56.353Z,18.46
2023-03-26T11:01:59.275Z,46.77
2023-03-26T11:03:01.942Z,22.09
2023-03-26T11:04:04.532Z,25.17
2023-03-26T11:05:07.182Z,18.55
2023-03-26T11:06:09.872Z,25.07
2023-03-26T11:07:12.405Z,32.14
2023-03-26T11:08:14.988Z,83.92
2023-03-26T11:09:17.468Z,60.01
2023-03-26T11:10:20.257Z,37.86
2023-03-26T11:11:22.713Z,21.79
2023-03-26T11:12:27.903Z,23.98
2023-03-26T11:13:29.655Z,34.81
2023-03-26T11:14:35.202Z,35.85
2023-03-26T11:15:36.600Z,39.11
2023-03-26T11:16:39.335Z,158.32
2023-03-26T11:17:41.916Z,181.90
2023-03-26T11:18:44.493Z,214.30
2023-03-26T11:19:47.034Z,240.59
2023-03-26T11:20:49.721Z,277.52
2023-03-26T11:21:52.168Z,653.01
2023-03-26T11:22:54.733Z,332.18
2023-03-26T11:24:05.420Z,760.31
2023-03-26T11:25:03.275Z,94.51
2023-03-26T11:26:06.134Z,557.16
2023-03-26T11:28:13.881Z,384.79
2023-03-26T11:29:31.143Z,349.04
2023-03-26T11:30:21.235Z,336.01
2023-03-26T11:31:23.779Z,339.75
2023-03-26T11:32:26.359Z,440.21
2023-03-26T11:33:32.848Z,427.62
2023-03-26T11:34:33.480Z,484.46
2023-03-26T11:34:36.645Z,594.34
2023-03-26T11:35:40.890Z,633.87
2023-03-26T11:36:40.544Z,191.64
2023-03-26T11:37:43.097Z,112.03
2023-03-26T11:38:45.541Z,208.06
2023-03-26T11:39:48.197Z,150.33
2023-03-26T11:40:50.715Z,111.75
2023-03-26T11:41:53.537Z,144.44
2023-03-26T11:42:56.083Z,50.47
2023-03-26T11:43:58.600Z,43.19
2023-03-26T11:45:01.108Z,43.81
2023-03-26T11:46:03.670Z,91.41
2023-03-26T11:47:06.187Z,49.96
2023-03-26T11:48:08.822Z,54.77
2023-03-26T11:49:11.777Z,98.72
2023-03-26T11:50:15.520Z,306.29
2023-03-26T11:51:18.050Z,211.39
2023-03-26T11:52:20.507Z,60.95
2023-03-26T11:53:22.968Z,86.76
2023-03-26T11:54:25.394Z,178.34
2023-03-26T11:55:27.899Z,151.89
2023-03-26T11:56:30.561Z,131.11
2023-03-26T11:57:33.454Z,138.37
2023-03-26T11:58:36.224Z,92.87
2023-03-26T11:59:49.011Z,100.34
2023-03-26T12:00:43.230Z,95.94
2023-03-26T12:01:45.728Z,39.06
2023-03-26T12:02:48.339Z,83.88
2023-03-26T12:03:51.188Z,41.49
2023-03-26T12:04:53.774Z,47.45
2023-03-26T12:05:56.454Z,38.00
2023-03-26T12:06:59.111Z,89.11
2023-03-26T12:08:01.645Z,55.58
2023-03-26T12:09:04.178Z,56.08
2023-03-26T12:10:18.266Z,112.52
2023-03-26T12:11:11.262Z,63.85
2023-03-26T12:12:13.829Z,70.45
2023-03-26T12:13:16.472Z,52.34
2023-03-26T12:14:18.966Z,40.03
2023-03-26T12:15:21.543Z,76.62
2023-03-26T12:16:24.518Z,56.24
2023-03-26T12:17:31.460Z,130.33
2023-03-26T12:18:31.916Z,48.67
2023-03-26T12:19:34.449Z,41.32
2023-03-26T12:20:37.243Z,45.62
2023-03-26T12:21:39.820Z,76.49
2023-03-26T12:22:43.805Z,53.94
2023-03-26T12:23:46.902Z,81.08
2023-03-26T12:24:49.374Z,42.11
2023-03-26T12:25:51.941Z,52.29
2023-03-26T12:26:54.726Z,34.77
2023-03-26T12:27:57.295Z,41.81
2023-03-26T12:28:59.859Z,31.64
2023-03-26T12:30:02.472Z,61.26
2023-03-26T12:31:05.092Z,39.73
2023-03-26T12:32:07.706Z,38.65
2023-03-26T12:33:10.293Z,54.05
2023-03-26T12:34:13.213Z,77.47
2023-03-26T12:35:15.775Z,74.43
2023-03-26T12:36:18.484Z,24.11
2023-03-26T12:37:21.049Z,43.09
2023-03-26T12:38:23.657Z,32.89
2023-03-26T12:40:09.584Z,27.73
2023-03-26T12:40:30.745Z,45.49
2023-03-26T12:42:25.739Z,44.11
2023-03-26T12:44:48.305Z,27.19
2023-03-26T12:44:49.858Z,30.21
2023-03-26T12:44:59.236Z,23.69
2023-03-26T12:47:46.232Z,27.79
2023-03-26T12:47:59.070Z,25.24
2023-03-26T12:48:03.903Z,23.73
2023-03-26T12:49:04.967Z,27.20
2023-03-26T12:50:08.905Z,18.06
2023-03-26T12:51:11.480Z,26.41
2023-03-26T12:52:14.074Z,14.71
2023-03-26T12:53:16.630Z,21.15
2023-03-26T12:54:19.295Z,34.81
2023-03-26T12:55:21.858Z,57.59
2023-03-26T12:56:24.573Z,82.80
2023-03-26T12:57:27.291Z,181.32
2023-03-26T12:58:30.212Z,169.65
2023-03-26T12:59:32.808Z,144.47
2023-03-26T13:00:35.495Z,128.52
2023-03-26T13:01:38.118Z,60.71
2023-03-26T13:02:40.676Z,42.28
2023-03-26T13:03:43.584Z,93.68
2023-03-26T13:04:58.481Z,21.53
2023-03-26T13:05:50.593Z,25.32
2023-03-26T13:07:00.388Z,27.22
2023-03-26T13:07:57.734Z,32.19
2023-03-26T13:09:00.296Z,23.14
2023-03-26T13:10:02.964Z,26.91
2023-03-26T13:11:05.540Z,25.03
2023-03-26T13:12:08.291Z,19.26
2023-03-26T13:13:10.863Z,19.66
2023-03-26T13:14:13.436Z,24.39
2023-03-26T13:15:15.812Z,18.70
2023-03-26T13:16:18.701Z,16.01
2023-03-26T13:17:21.301Z,22.34
2023-03-26T13:18:23.866Z,17.57
2023-03-26T13:19:26.450Z,22.99
2023-03-26T13:20:29.376Z,19.69
2023-03-26T13:21:31.907Z,17.13
2023-03-26T13:22:34.532Z,18.24
2023-03-26T13:23:37.092Z,15.11
2023-03-26T13:24:39.660Z,13.93